• Join FlightAware (Why Join?)
  • Login
  • US Flag 
03:12AM EDT


 

Airport Tracker/Info


-or-


 

Live Flight TrackerFlight Track Log ✈ ASQ5919 ✈ 08-May-2013 ✈ KLIT - KORD

Flight Track Log - Related Links

Times and Time Zones

All times are in EDT time to prevent confusion due to time zone crossing. See the ASQ5919 flight status page for this flight to view local times or setup timezone preferences in your user account.

Time Position Orientation Groundspeed Altitude Reporting Facility
EDT Latitude Longitude Course Direction KTS MPH feet Rate Location/Type
07:06AM 34.7331 -92.2019 24° Northeast 165 190 700  Level Memphis Center
07:07AM 34.7833 -92.1753 24° Northeast 214 246 2,700 2,700 Climbing Memphis Center
07:08AM 34.8569 -92.1389 22° Northeast 275 316 6,200 3,120 Climbing Memphis Center
07:10AM 34.9744 -92.0939 17° North 263 303 11,300 2,760 Climbing Kansas City Center
07:10AM 34.9933 -92.0883 14° North 282 325 11,700 1,560 Climbing Memphis Center
07:11AM 35.0792 -92.0672 11° North 288 331 13,400 1,620 Climbing Memphis Center
07:12AM 35.1714 -92.0386 14° North 312 359 15,000 1,800 Climbing Memphis Center
07:13AM 35.2697 -92.0100 13° North 338 389 17,000 1,800 Climbing Memphis Center
07:14AM 35.3703 -91.9842 12° North 358 412 18,700 2,040 Climbing Memphis Center
07:15AM 35.4708 -91.9531 14° North 358 412 21,100 2,160 Climbing Memphis Center
07:16AM 35.5669 -91.9242 14° North 358 412 23,100 2,400 Climbing Memphis Center
07:17AM 35.6758 -91.8931 13° North 358 412 26,000 2,580 Climbing Memphis Center
07:18AM 35.7700 -91.8667 13° North 353 406 28,300 1,500 Climbing Memphis Center
07:19AM 35.8664 -91.8403 13° North 353 406 29,000 300 Climbing Memphis Center
07:20AM 35.9625 -91.8111 14° North 360 414 29,000  Level Memphis Center
07:21AM 36.0736 -91.7744 15° North 385 443 29,100 900 Climbing Memphis Center
07:22AM 36.1864 -91.7456 12° North 398 458 30,800 1,380 Climbing Memphis Center
07:23AM 36.2972 -91.7114 14° North 403 464 31,900 1,500 Climbing Memphis Center
07:24AM 36.4039 -91.6772 14° North 403 464 33,800 1,680 Climbing Memphis Center
07:26AM 36.6008 -91.6153 14° North 383 441 36,700 1,080 Climbing Kansas City Center
07:27AM 36.7011 -91.5858 13° North 373 429 37,000 120 Climbing Kansas City Center
07:28AM 36.8086 -91.5572 12° North 382 440 37,000  Level Kansas City Center
07:29AM 36.9206 -91.5214 14° North 404 465 37,000  Level Kansas City Center
07:30AM 37.0331 -91.4878 13° North 412 474 37,000  Level Kansas City Center
07:31AM 37.1458 -91.4536 14° North 414 476 37,000  Level Kansas City Center
07:32AM 37.2592 -91.4175 14° North 417 480 37,000  Level Kansas City Center
07:33AM 37.3733 -91.3836 13° North 419 482 37,000  Level Kansas City Center
07:34AM 37.4856 -91.3483 14° North 419 482 37,000  Level Kansas City Center
07:35AM 37.6003 -91.3136 13° North 420 483 37,000  Level Kansas City Center
07:36AM 37.7372 -91.2719 14° North 421 484 37,000  Level Kansas City Center
07:37AM 37.8531 -91.2364 14° North 423 487 37,000  Level Kansas City Center
07:38AM 37.9675 -91.2006 14° North 424 488 37,000  Level Kansas City Center
07:39AM 38.0814 -91.1653 14° North 424 488 37,000  Level Kansas City Center
07:40AM 38.1942 -91.1303 14° North 421 484 37,000  Level Kansas City Center
07:41AM 38.3061 -91.0947 14° North 419 482 37,000  Level Kansas City Center
07:42AM 38.4167 -91.0592 14° North 414 476 37,000  Level Kansas City Center
07:43AM 38.5289 -91.0242 14° North 413 475 37,000  Level Kansas City Center
07:44AM 38.6414 -90.9892 14° North 413 475 37,000  Level Kansas City Center
07:45AM 38.7544 -90.9394 19° North 422 486 37,000  Level Kansas City Center
07:46AM 38.8642 -90.8814 22° Northeast 424 488 37,000  Level Kansas City Center
07:47AM 38.9764 -90.8203 23° Northeast 431 496 37,000  Level Kansas City Center
07:48AM 39.0886 -90.7594 23° Northeast 433 498 37,000  Level Kansas City Center
07:49AM 39.1997 -90.6986 23° Northeast 433 498 37,000  Level Kansas City Center
07:50AM 39.3122 -90.6356 23° Northeast 437 503 37,000  Level Kansas City Center
07:51AM 39.4242 -90.5736 23° Northeast 437 503 37,000  Level Kansas City Center
07:53AM 39.5372 -90.5122 23° Northeast 439 505 37,000  Level Kansas City Center
07:54AM 39.6717 -90.4364 23° Northeast 439 505 37,000 -420 Level Kansas City Center
07:55AM 39.7675 -90.3839 23° Northeast 438 504 36,200 -1,020 Descending Kansas City Center
07:55AM 39.8758 -90.3231 23° Northeast 428 493 35,100 -1,200 Descending Chicago Center
07:56AM 39.9850 -90.2614 23° Northeast 426 490 34,000 -1,020 Descending Chicago Center
07:57AM 40.0953 -90.1986 24° Northeast 432 497 33,100 -540 Descending Chicago Center
07:58AM 40.1964 -90.0997 37° Northeast 448 516 33,000 -60 Descending Chicago Center
08:00AM 40.2956 -89.9978 38° Northeast 453 521 33,000 -360 Level Chicago Center
08:01AM 40.3944 -89.8947 38° Northeast 455 524 32,300 -900 Descending Chicago Center
08:02AM 40.5053 -89.7789 38° Northeast 452 520 31,200 -1,020 Descending Chicago Center
08:03AM 40.6033 -89.6761 38° Northeast 452 520 30,300 -960 Descending Chicago Center
08:04AM 40.7039 -89.5725 38° Northeast 459 528 29,300 -1,380 Descending Chicago Center
08:05AM 40.8058 -89.4650 39° Northeast 461 531 27,500 -2,280 Descending Chicago Center
08:06AM 40.9047 -89.3600 39° Northeast 457 526 24,700 -2,700 Descending Chicago Center
08:07AM 41.0197 -89.2392 38° Northeast 442 509 22,000 -2,400 Descending Chicago Center
08:08AM 41.1108 -89.1417 39° Northeast 433 498 19,800 -2,040 Descending Chicago Center
08:09AM 41.1989 -89.0481 39° Northeast 413 475 17,800 -1,920 Descending Chicago Center
08:10AM 41.2847 -88.9550 39° Northeast 401 461 15,900 -1,920 Descending Chicago Center
08:11AM 41.3686 -88.8631 39° Northeast 394 453 13,900 -1,800 Descending Chicago Center
08:12AM 41.4494 -88.7758 39° Northeast 378 435 12,200 -1,440 Descending Chicago Center
08:13AM 41.5239 -88.6744 46° Northeast 316 364 11,000 -600 Descending Chicago Center
08:14AM 41.5622 -88.5767 62° Northeast 298 343 11,000 -540 Level Chicago Center
08:15AM 41.5900 -88.4742 70° East 294 338 9,900 -1,440 Descending Chicago Center
08:16AM 41.6194 -88.3761 68° East 286 329 8,100 -1,020 Descending Chicago Center
08:17AM 41.6464 -88.2792 70° East 278 320 7,900 -540 Descending Chicago Center
08:18AM 41.6886 -88.2111 50° Northeast 240 276 7,100 -600 Descending Chicago Center
08:19AM 41.7372 -88.1542 41° Northeast 192 221 6,700 -780 Descending Chicago Center
08:20AM 41.7750 -88.1097 41° Northeast 183 211 5,500 -1,200 Descending Chicago Center
08:21AM 41.8119 -88.0667 41° Northeast 177 204 4,300 -1,020 Descending Chicago Center
08:22AM 41.8489 -88.0222 42° Northeast 178 205 3,400 -1,080 Descending Chicago Center
08:23AM 41.9000 -87.9667 39° Northeast 195 224 2,200 -1,020 Descending Chicago TRACON
08:24AM 41.9333 -87.9333 37° Northeast 143 165 1,500 -720 Descending Chicago TRACON
08:27AM 41.9667 -87.9000 37° Northeast  Level FlightAware Approximate